Time;durP1;ratioP1;P1;durP2;ratioP2;P2;SDS_P1;SDS_P2;PMS_P1;PMS_P2;Temp;Humidity;BMP_temperature;BMP_pressure;BME280_temperature;BME280_humidity;BME280_pressure;Samples;Min_cycle;Max_cycle;Signal;HPM_P1;HPM_P2
2021/08/21 00:00:17;;;;;;;3.72;2.00;;;21.70;99.70;;;;;;4954582;28;20066;-78
2021/08/21 00:02:43;;;;;;;3.90;2.33;;;21.70;99.70;;;;;;4954860;29;20063;-76
2021/08/21 00:05:09;;;;;;;4.13;1.83;;;21.70;99.70;;;;;;4938002;29;20046;-78
2021/08/21 00:07:35;;;;;;;4.45;1.98;;;21.70;99.90;;;;;;4955023;29;20047;-77
2021/08/21 00:10:02;;;;;;;3.63;1.70;;;21.70;99.90;;;;;;4960254;28;20455;-77
2021/08/21 00:12:28;;;;;;;5.47;2.08;;;21.70;99.90;;;;;;4962867;28;20029;-78
2021/08/21 00:14:54;;;;;;;3.13;1.83;;;21.70;99.90;;;;;;4973853;28;20027;-77
2021/08/21 00:17:19;;;;;;;4.65;1.80;;;21.70;99.90;;;;;;4973748;28;20423;-77
2021/08/21 00:19:45;;;;;;;3.85;2.22;;;21.70;99.90;;;;;;4972142;28;20023;-78
2021/08/21 00:22:13;;;;;;;2.88;1.60;;;21.70;99.90;;;;;;4954382;29;20031;-80
2021/08/21 00:24:39;;;;;;;4.45;1.88;;;21.70;99.90;;;;;;4954725;28;20054;-80
2021/08/21 00:27:05;;;;;;;4.13;2.05;;;21.70;99.90;;;;;;4962423;28;20035;-78
2021/08/21 00:29:32;;;;;;;4.03;1.90;;;21.70;99.90;;;;;;4973177;28;20036;-80
2021/08/21 00:31:58;;;;;;;4.97;2.80;;;21.70;99.90;;;;;;4973634;28;20051;-80
2021/08/21 00:34:23;;;;;;;3.63;2.15;;;21.70;99.90;;;;;;4973077;28;20057;-80
2021/08/21 00:36:49;;;;;;;3.55;1.90;;;21.70;99.90;;;;;;4972747;28;20035;-80
2021/08/21 00:39:15;;;;;;;3.30;1.83;;;21.70;99.90;;;;;;4972980;28;20551;-81
2021/08/21 00:41:41;;;;;;;2.40;1.27;;;21.70;99.90;;;;;;4960087;28;20034;-77
2021/08/21 00:44:07;;;;;;;4.65;1.83;;;21.70;99.90;;;;;;4973416;28;20054;-77
2021/08/21 00:46:35;;;;;;;3.13;2.10;;;21.60;99.90;;;;;;4960771;28;20011;-80
2021/08/21 00:49:00;;;;;;;3.08;1.50;;;21.70;99.90;;;;;;4973410;28;20117;-80
2021/08/21 00:51:26;;;;;;;3.22;1.80;;;21.60;99.90;;;;;;4973200;28;20166;-80
2021/08/21 00:53:52;;;;;;;4.32;1.70;;;21.60;99.90;;;;;;4970579;28;20034;-80
2021/08/21 00:56:18;;;;;;;2.78;1.83;;;21.60;99.90;;;;;;4954564;28;20027;-81
2021/08/21 00:58:43;;;;;;;3.25;1.60;;;21.60;99.90;;;;;;4937491;29;20035;-80
2021/08/21 01:01:09;;;;;;;3.03;1.70;;;21.60;99.90;;;;;;4955397;28;20373;-81
2021/08/21 01:03:35;;;;;;;4.25;1.67;;;21.60;99.90;;;;;;4973503;28;20467;-81
2021/08/21 01:06:00;;;;;;;2.70;1.60;;;21.60;99.90;;;;;;4973201;28;20023;-80
2021/08/21 01:08:26;;;;;;;1.95;1.42;;;21.60;99.90;;;;;;4970997;28;20043;-80
2021/08/21 01:10:52;;;;;;;2.63;1.40;;;21.60;99.90;;;;;;4959621;28;20027;-78
2021/08/21 01:13:18;;;;;;;2.60;1.50;;;21.60;99.90;;;;;;4946872;28;20042;-81
2021/08/21 01:15:44;;;;;;;3.97;1.40;;;21.60;99.90;;;;;;4945656;29;20410;-80
2021/08/21 01:18:10;;;;;;;3.17;1.90;;;21.60;99.90;;;;;;4952347;28;20494;-78
2021/08/21 01:20:36;;;;;;;3.00;1.27;;;21.60;99.90;;;;;;4973160;28;20057;-80
2021/08/21 01:23:03;;;;;;;2.78;1.95;;;21.60;99.90;;;;;;4955527;28;20030;-80
2021/08/21 01:25:30;;;;;;;3.05;1.50;;;21.50;99.90;;;;;;4954044;28;20027;-80
2021/08/21 01:27:55;;;;;;;2.63;1.50;;;21.50;99.90;;;;;;4964856;28;20070;-80
2021/08/21 01:30:21;;;;;;;2.50;1.23;;;21.60;99.90;;;;;;4967411;28;20070;-79
2021/08/21 01:32:47;;;;;;;3.15;1.42;;;21.50;99.90;;;;;;4972735;28;20541;-80
2021/08/21 01:35:14;;;;;;;3.88;1.60;;;21.50;99.90;;;;;;4972441;28;20019;-80
2021/08/21 01:37:40;;;;;;;3.95;1.60;;;21.60;99.90;;;;;;4972629;28;20033;-79
2021/08/21 01:40:06;;;;;;;2.22;1.58;;;21.50;99.90;;;;;;4972480;28;20030;-79
2021/08/21 01:42:32;;;;;;;2.72;1.40;;;21.50;99.90;;;;;;4961174;28;20027;-80
2021/08/21 01:44:58;;;;;;;3.17;1.52;;;21.50;99.90;;;;;;4967445;28;20384;-80
2021/08/21 01:47:25;;;;;;;2.97;1.55;;;21.50;99.90;;;;;;4971547;28;20075;-80
2021/08/21 01:49:55;;;;;;;3.28;1.65;;;21.50;99.90;;;;;;4953209;28;20129;-79
2021/08/21 01:52:21;;;;;;;2.65;1.42;;;21.50;99.90;;;;;;4965738;28;20384;-80
2021/08/21 01:54:46;;;;;;;2.05;1.45;;;21.50;99.90;;;;;;4953181;28;20098;-80
2021/08/21 01:57:12;;;;;;;2.25;1.35;;;21.50;99.90;;;;;;4965658;28;20429;-80
2021/08/21 01:59:40;;;;;;;2.65;1.50;;;21.50;99.90;;;;;;4936564;29;20035;-81
2021/08/21 02:02:10;;;;;;;2.92;1.65;;;21.50;99.90;;;;;;4953246;28;20031;-81
2021/08/21 02:04:36;;;;;;;2.97;1.65;;;21.50;99.90;;;;;;4953433;29;20027;-79
2021/08/21 02:07:02;;;;;;;2.58;1.45;;;21.50;99.90;;;;;;4952964;29;20042;-79
2021/08/21 02:09:28;;;;;;;2.65;1.38;;;21.50;99.90;;;;;;4968791;28;20030;-79
2021/08/21 02:11:56;;;;;;;3.30;1.98;;;21.50;99.90;;;;;;4966742;28;20027;-80
2021/08/21 02:14:23;;;;;;;2.47;1.23;;;21.50;99.90;;;;;;4967943;28;20037;-78
2021/08/21 02:16:51;;;;;;;2.03;1.50;;;21.50;99.90;;;;;;4965277;28;20498;-80
2021/08/21 02:19:18;;;;;;;3.55;1.40;;;21.50;99.90;;;;;;4954602;28;20054;-79
2021/08/21 02:21:45;;;;;;;2.97;1.30;;;21.40;99.90;;;;;;4971761;28;20547;-80
2021/08/21 02:24:10;;;;;;;2.60;1.38;;;21.40;99.90;;;;;;4971563;28;20034;-79
2021/08/21 02:26:41;;;;;;;3.40;1.50;;;21.40;99.90;;;;;;4962202;28;20162;-79
2021/08/21 02:29:07;;;;;;;2.00;1.25;;;21.40;99.90;;;;;;4956815;28;20549;-77
2021/08/21 02:31:33;;;;;;;3.80;1.35;;;21.40;99.80;;;;;;4952537;29;20028;-77
2021/08/21 02:33:59;;;;;;;2.13;1.40;;;21.40;99.90;;;;;;4952915;29;20391;-78
2021/08/21 02:36:26;;;;;;;2.30;1.55;;;21.40;99.90;;;;;;4952392;28;20038;-79
2021/08/21 02:38:51;;;;;;;2.92;1.42;;;21.40;99.80;;;;;;4952745;29;20027;-79
2021/08/21 02:41:17;;;;;;;2.47;1.52;;;21.40;99.80;;;;;;4952307;28;20046;-79
2021/08/21 02:43:43;;;;;;;1.70;1.10;;;21.40;99.80;;;;;;4963691;28;20031;-80
2021/08/21 02:46:08;;;;;;;3.15;1.73;;;21.40;99.80;;;;;;4952772;28;20047;-79
2021/08/21 02:48:34;;;;;;;2.58;1.60;;;21.40;99.70;;;;;;4953350;28;20042;-80
2021/08/21 02:51:00;;;;;;;2.63;1.25;;;21.30;99.70;;;;;;4962891;28;20481;-81
2021/08/21 02:53:26;;;;;;;1.98;1.20;;;21.30;99.70;;;;;;4961172;28;20031;-81
2021/08/21 02:55:52;;;;;;;2.03;1.40;;;21.30;99.60;;;;;;4952518;28;20033;-81
2021/08/21 02:58:17;;;;;;;1.50;1.05;;;21.30;99.60;;;;;;4953255;28;20403;-80
2021/08/21 03:00:43;;;;;;;2.78;1.45;;;21.30;99.50;;;;;;4966162;28;20031;-80
2021/08/21 03:03:10;;;;;;;2.78;1.25;;;21.30;99.60;;;;;;4956193;29;20054;-80
2021/08/21 03:05:35;;;;;;;4.15;1.60;;;21.30;99.50;;;;;;4956011;28;20024;-80
2021/08/21 03:08:02;;;;;;;2.63;1.40;;;21.30;99.50;;;;;;4955917;29;20114;-80
2021/08/21 03:10:27;;;;;;;2.13;1.42;;;21.30;99.40;;;;;;4940903;28;20482;-79
2021/08/21 03:12:53;;;;;;;2.33;1.13;;;21.30;99.40;;;;;;4960205;28;20058;-80
2021/08/21 03:15:18;;;;;;;1.95;1.40;;;21.30;99.40;;;;;;4959352;28;20391;-79
2021/08/21 03:17:44;;;;;;;2.25;1.30;;;21.30;99.60;;;;;;4958725;28;20027;-79
2021/08/21 03:20:10;;;;;;;2.65;1.40;;;21.30;99.30;;;;;;4974433;28;20129;-80
2021/08/21 03:22:36;;;;;;;2.13;1.27;;;21.30;99.30;;;;;;4974416;28;20015;-80
2021/08/21 03:25:02;;;;;;;3.22;1.63;;;21.30;99.20;;;;;;4974581;28;20061;-80
2021/08/21 03:27:28;;;;;;;2.53;1.40;;;21.30;99.20;;;;;;4956849;28;20046;-80
2021/08/21 03:29:54;;;;;;;2.28;1.65;;;21.30;99.20;;;;;;4971994;28;20030;-79
2021/08/21 03:32:19;;;;;;;1.95;1.17;;;21.30;99.20;;;;;;4957290;28;20038;-79
2021/08/21 03:34:46;;;;;;;1.88;1.08;;;21.20;99.10;;;;;;4974853;28;20027;-80
2021/08/21 03:37:12;;;;;;;2.47;1.42;;;21.20;99.10;;;;;;4973982;28;20035;-79
2021/08/21 03:39:38;;;;;;;3.42;1.20;;;21.20;99.00;;;;;;4957759;28;20023;-80
2021/08/21 03:42:05;;;;;;;2.05;1.20;;;21.30;99.00;;;;;;4974631;28;20526;-79
2021/08/21 03:44:31;;;;;;;1.90;1.30;;;21.20;99.00;;;;;;4969943;28;20113;-80
2021/08/21 03:46:57;;;;;;;2.03;1.25;;;21.20;98.90;;;;;;4955274;29;20098;-80
2021/08/21 03:49:22;;;;;;;1.88;1.33;;;21.20;98.90;;;;;;4954821;28;20463;-80
2021/08/21 03:51:48;;;;;;;2.55;1.50;;;21.20;98.90;;;;;;4955401;29;20027;-79
2021/08/21 03:54:13;;;;;;;3.97;1.50;;;21.20;98.80;;;;;;4955728;28;20432;-79
2021/08/21 03:56:39;;;;;;;2.08;1.38;;;21.20;98.80;;;;;;4955319;28;20480;-79
2021/08/21 03:59:05;;;;;;;2.83;1.33;;;21.20;98.70;;;;;;4956334;28;20427;-79
2021/08/21 04:01:32;;;;;;;2.45;1.60;;;21.20;98.70;;;;;;4971087;28;20031;-79
2021/08/21 04:03:57;;;;;;;3.17;1.80;;;21.20;98.60;;;;;;4974297;28;20027;-79
2021/08/21 04:06:23;;;;;;;1.65;1.23;;;21.20;98.60;;;;;;4957158;28;20032;-79
2021/08/21 04:08:49;;;;;;;2.25;1.45;;;21.20;98.60;;;;;;4954824;29;20127;-79
2021/08/21 04:11:14;;;;;;;2.40;1.40;;;21.20;98.50;;;;;;4960185;28;20030;-79
2021/08/21 04:13:40;;;;;;;2.28;1.40;;;21.20;98.50;;;;;;4973054;28;20530;-79
2021/08/21 04:16:06;;;;;;;2.10;1.40;;;21.20;98.50;;;;;;4969860;28;20109;-80
2021/08/21 04:18:31;;;;;;;2.83;1.58;;;21.10;98.40;;;;;;4955937;28;20055;-80
2021/08/21 04:20:57;;;;;;;2.13;1.30;;;21.10;98.40;;;;;;4973654;28;20129;-79
2021/08/21 04:23:23;;;;;;;2.25;1.42;;;21.10;98.30;;;;;;4973325;28;20027;-80
2021/08/21 04:25:49;;;;;;;3.10;1.60;;;21.10;98.30;;;;;;4973488;28;20543;-79
2021/08/21 04:28:14;;;;;;;1.92;1.10;;;21.10;98.40;;;;;;4973533;28;20399;-79
2021/08/21 04:30:40;;;;;;;2.50;1.55;;;21.10;98.30;;;;;;4966889;28;20118;-79
2021/08/21 04:33:05;;;;;;;3.95;1.80;;;21.10;98.30;;;;;;4954720;29;20050;-80
2021/08/21 04:35:31;;;;;;;1.60;1.20;;;21.10;98.20;;;;;;4953997;28;20038;-80
2021/08/21 04:37:57;;;;;;;2.72;1.35;;;21.10;98.20;;;;;;4954365;29;20031;-80
2021/08/21 04:40:23;;;;;;;2.50;1.40;;;21.10;98.20;;;;;;4961668;28;20031;-80
2021/08/21 04:42:49;;;;;;;1.85;1.25;;;21.10;98.10;;;;;;4948785;29;20407;-80
2021/08/21 04:45:15;;;;;;;2.25;1.38;;;21.10;98.10;;;;;;4961206;28;20030;-79
2021/08/21 04:47:41;;;;;;;2.38;1.40;;;21.10;98.10;;;;;;4957945;28;20039;-80
2021/08/21 04:50:07;;;;;;;3.05;1.73;;;21.10;98.10;;;;;;4954358;28;20082;-80
2021/08/21 04:52:33;;;;;;;2.58;1.30;;;21.10;98.00;;;;;;4958203;28;20034;-80
2021/08/21 04:55:02;;;;;;;3.58;1.90;;;21.10;98.00;;;;;;4972962;28;20026;-80
2021/08/21 04:57:27;;;;;;;1.48;0.95;;;21.10;98.00;;;;;;4973045;28;20029;-79
2021/08/21 04:59:53;;;;;;;2.95;1.10;;;21.10;98.00;;;;;;4971990;28;20114;-79
2021/08/21 05:02:18;;;;;;;2.08;1.27;;;21.10;97.90;;;;;;4971557;28;20039;-79
2021/08/21 05:04:44;;;;;;;1.92;1.30;;;21.10;97.90;;;;;;4972862;28;20054;-79
2021/08/21 05:07:10;;;;;;;2.92;1.17;;;21.10;97.80;;;;;;4973131;28;20039;-79
2021/08/21 05:09:35;;;;;;;1.73;1.23;;;21.10;97.80;;;;;;4973190;28;20081;-78
2021/08/21 05:12:01;;;;;;;1.75;1.20;;;21.10;97.80;;;;;;4971912;28;20034;-77
2021/08/21 05:14:27;;;;;;;2.85;1.50;;;21.10;97.80;;;;;;4954379;28;20034;-79
2021/08/21 05:16:52;;;;;;;3.75;1.40;;;21.10;97.80;;;;;;4961648;28;20537;-78
2021/08/21 05:21:57;;;;;;;2.37;1.43;;;21.00;97.70;;;;;;4972888;28;20031;-80
2021/08/21 05:24:23;;;;;;;3.15;1.30;;;21.10;97.70;;;;;;4972683;28;20072;-78
2021/08/21 05:26:50;;;;;;;3.50;1.33;;;21.00;97.70;;;;;;4972261;28;20442;-78
2021/08/21 05:29:17;;;;;;;2.67;1.42;;;21.00;97.60;;;;;;4970766;28;20162;-78
2021/08/21 05:31:43;;;;;;;2.53;1.20;;;21.00;97.60;;;;;;4963153;28;20039;-78
2021/08/21 05:34:13;;;;;;;2.13;1.40;;;21.00;97.50;;;;;;4953592;28;20039;-77
2021/08/21 05:36:39;;;;;;;2.25;1.15;;;21.00;97.50;;;;;;4953663;29;20027;-78
2021/08/21 05:39:10;;;;;;;3.25;1.17;;;21.00;97.50;;;;;;4953354;29;20023;-78
2021/08/21 05:41:36;;;;;;;2.95;1.50;;;21.00;97.50;;;;;;4965914;28;20035;-78
2021/08/21 05:44:02;;;;;;;4.28;1.55;;;21.00;97.50;;;;;;4957294;28;20031;-77
2021/08/21 05:46:28;;;;;;;1.92;1.27;;;;;;;;;;4962735;28;20023;-78
2021/08/21 05:48:54;;;;;;;2.90;1.50;;;;;;;;;;4952948;29;20035;-77
2021/08/21 05:51:20;;;;;;;4.10;1.13;;;;;;;;;;4952945;29;20032;-78
2021/08/21 05:53:46;;;;;;;1.75;1.25;;;;;;;;;;4953155;29;20110;-78
2021/08/21 05:56:11;;;;;;;1.90;1.15;;;21.00;97.50;;;;;;4952794;28;20115;-77
2021/08/21 05:58:37;;;;;;;2.92;1.42;;;21.00;97.30;;;;;;4958013;28;20391;-77
2021/08/21 06:01:03;;;;;;;2.88;1.33;;;;;;;;;;4953992;28;20054;-78
2021/08/21 06:03:29;;;;;;;1.75;1.20;;;;;;;;;;4956081;28;20487;-79
2021/08/21 06:05:55;;;;;;;1.75;1.10;;;;;;;;;;4971908;28;20035;-78
2021/08/21 06:08:21;;;;;;;2.90;1.30;;;;;;;;;;4972007;28;20039;-78
2021/08/21 06:10:47;;;;;;;1.90;1.20;;;;;;;;;;4961633;28;20485;-77
2021/08/21 06:13:13;;;;;;;2.33;1.40;;;;;;;;;;4968563;28;20027;-78
2021/08/21 06:15:39;;;;;;;2.33;1.30;;;;;;;;;;4972279;28;20076;-78
2021/08/21 06:18:05;;;;;;;2.65;1.20;;;;;;;;;;4968137;28;20030;-79
2021/08/21 06:20:31;;;;;;;2.15;1.30;;;;;;;;;;4970206;28;20039;-77
2021/08/21 06:22:57;;;;;;;2.08;1.20;;;21.00;97.40;;;;;;4972220;28;20034;-78
2021/08/21 06:25:22;;;;;;;2.85;1.40;;;20.90;97.00;;;;;;4962861;28;20027;-79
2021/08/21 06:27:49;;;;;;;1.77;1.20;;;20.90;97.30;;;;;;4968978;28;20113;-78
2021/08/21 06:30:14;;;;;;;2.17;1.20;;;20.90;97.30;;;;;;4968440;28;20015;-83
2021/08/21 06:32:40;;;;;;;2.35;1.20;;;21.00;97.30;;;;;;4938582;29;20118;-77
2021/08/21 06:35:07;;;;;;;3.05;1.13;;;21.00;97.30;;;;;;4956167;28;20050;-77
2021/08/21 06:37:32;;;;;;;2.10;1.20;;;21.00;97.20;;;;;;4971360;28;20558;-78
2021/08/21 06:39:58;;;;;;;1.67;1.10;;;21.00;97.20;;;;;;4973274;28;20114;-77
2021/08/21 06:42:24;;;;;;;2.47;1.10;;;;;;;;;;4963240;28;20037;-77
2021/08/21 06:44:50;;;;;;;2.10;1.00;;;;;;;;;;4963691;28;20038;-77
2021/08/21 06:47:19;;;;;;;1.80;1.00;;;;;;;;;;4966015;28;20051;-77
2021/08/21 06:49:45;;;;;;;2.97;1.40;;;;;;;;;;4964126;28;20015;-77
2021/08/21 06:52:11;;;;;;;2.50;1.55;;;;;;;;;;4962504;28;20561;-77
2021/08/21 06:54:37;;;;;;;1.88;1.10;;;21.10;97.10;;;;;;4964302;28;20042;-78
2021/08/21 06:57:03;;;;;;;1.85;1.30;;;21.20;96.70;;;;;;4963771;28;20062;-77
2021/08/21 06:59:28;;;;;;;1.40;1.08;;;21.20;96.90;;;;;;4961223;28;20070;-81
2021/08/21 07:01:54;;;;;;;1.77;1.10;;;21.20;96.90;;;;;;4969792;28;20063;-82
2021/08/21 07:04:19;;;;;;;3.28;1.85;;;21.20;97.00;;;;;;4972200;28;20035;-79
2021/08/21 07:06:45;;;;;;;2.08;1.50;;;21.20;96.90;;;;;;4958291;28;20093;-79
2021/08/21 07:09:11;;;;;;;2.13;1.33;;;21.20;97.00;;;;;;4940846;29;20427;-80
2021/08/21 07:11:36;;;;;;;2.72;1.40;;;21.20;97.00;;;;;;4960567;28;20081;-78
2021/08/21 07:14:02;;;;;;;5.68;1.20;;;21.20;97.10;;;;;;4955854;29;20038;-78
2021/08/21 07:16:28;;;;;;;3.53;1.60;;;21.20;97.20;;;;;;4955591;29;20020;-77
2021/08/21 07:18:53;;;;;;;4.32;1.30;;;21.30;97.20;;;;;;4955782;29;20027;-77
2021/08/21 07:21:21;;;;;;;4.25;1.65;;;21.30;97.90;;;;;;4955480;28;20039;-77
2021/08/21 07:23:48;;;;;;;3.83;1.48;;;21.30;97.70;;;;;;4963441;28;20022;-77
2021/08/21 07:26:14;;;;;;;3.38;1.42;;;21.30;97.90;;;;;;4961668;28;20106;-77
2021/08/21 07:28:40;;;;;;;6.03;2.90;;;21.30;98.00;;;;;;4955428;29;20123;-78
2021/08/21 07:31:05;;;;;;;6.93;2.15;;;21.40;99.90;;;;;;4960733;28;20024;-77
2021/08/21 07:33:31;;;;;;;6.15;1.75;;;21.40;98.60;;;;;;4968192;28;20448;-78
2021/08/21 07:35:57;;;;;;;9.00;2.72;;;21.40;98.70;;;;;;4974820;28;20030;-78
2021/08/21 07:38:23;;;;;;;13.65;2.78;;;21.40;98.80;;;;;;4968343;28;20027;-78
2021/08/21 07:40:50;;;;;;;5.47;1.98;;;21.50;99.20;;;;;;4964582;28;20404;-78
2021/08/21 07:43:16;;;;;;;6.05;2.88;;;21.50;99.10;;;;;;4972003;28;20031;-78
2021/08/21 07:45:43;;;;;;;4.82;2.35;;;21.50;99.10;;;;;;4983023;28;20067;-77
2021/08/21 07:48:08;;;;;;;6.53;2.35;;;21.50;99.30;;;;;;4963629;28;20035;-77
2021/08/21 07:50:34;;;;;;;8.23;2.53;;;21.50;99.00;;;;;;4954849;28;20023;-77
2021/08/21 07:52:59;;;;;;;6.93;2.45;;;21.60;99.20;;;;;;4957954;28;20654;-78
2021/08/21 07:55:25;;;;;;;6.90;2.70;;;21.60;99.30;;;;;;4973866;28;20031;-78
2021/08/21 07:57:51;;;;;;;5.93;2.50;;;21.60;99.30;;;;;;4974350;28;20038;-76
2021/08/21 08:00:17;;;;;;;9.10;2.53;;;21.60;99.50;;;;;;4974145;28;20027;-76
2021/08/21 08:02:45;;;;;;;13.88;2.85;;;21.60;99.10;;;;;;4974344;28;20494;-75
2021/08/21 08:05:12;;;;;;;5.97;2.63;;;21.60;99.00;;;;;;4974110;28;20524;-79
2021/08/21 08:07:37;;;;;;;7.38;2.25;;;21.60;99.00;;;;;;4974470;28;20502;-78
2021/08/21 08:10:04;;;;;;;4.95;2.40;;;21.70;98.90;;;;;;4973325;28;20031;-79
2021/08/21 08:12:29;;;;;;;7.78;2.50;;;21.70;99.00;;;;;;4973867;28;20028;-78
2021/08/21 08:14:55;;;;;;;6.57;2.10;;;21.70;99.00;;;;;;4974097;28;20034;-78
2021/08/21 08:17:20;;;;;;;4.85;2.25;;;21.70;98.90;;;;;;4956254;28;20043;-80
2021/08/21 08:19:46;;;;;;;5.43;1.85;;;21.70;98.90;;;;;;4972946;28;20081;-78
2021/08/21 08:22:12;;;;;;;6.68;2.33;;;21.70;98.80;;;;;;4971792;28;20039;-78
2021/08/21 08:24:37;;;;;;;7.72;2.60;;;21.80;98.80;;;;;;4974287;28;20086;-79
2021/08/21 08:27:03;;;;;;;7.85;2.33;;;21.80;98.70;;;;;;4973464;28;20449;-77
2021/08/21 08:29:29;;;;;;;5.80;1.98;;;21.80;98.60;;;;;;4971680;28;20031;-79
2021/08/21 08:31:55;;;;;;;5.65;1.95;;;21.80;98.50;;;;;;4972190;28;20100;-79
2021/08/21 08:34:20;;;;;;;7.78;1.80;;;21.90;98.30;;;;;;4955858;28;20062;-78
2021/08/21 08:36:46;;;;;;;7.82;2.05;;;21.80;98.20;;;;;;4973118;28;20034;-78
2021/08/21 08:39:11;;;;;;;4.15;1.90;;;21.90;98.10;;;;;;4973175;28;20081;-78
2021/08/21 08:41:41;;;;;;;5.68;2.38;;;21.90;98.00;;;;;;4973519;28;20039;-78
2021/08/21 08:44:12;;;;;;;3.75;1.50;;;21.90;98.00;;;;;;4973854;28;20054;-78
2021/08/21 08:46:39;;;;;;;5.97;1.85;;;21.90;97.90;;;;;;4973856;28;20031;-79
2021/08/21 08:49:05;;;;;;;4.70;1.80;;;21.90;97.80;;;;;;4973492;28;20513;-79
2021/08/21 08:51:34;;;;;;;5.30;2.00;;;21.90;98.10;;;;;;4955690;28;20031;-79
2021/08/21 08:54:00;;;;;;;5.68;1.77;;;21.90;97.70;;;;;;4973329;28;20041;-79
2021/08/21 08:56:26;;;;;;;3.63;1.63;;;21.90;97.50;;;;;;4972714;28;20101;-78
2021/08/21 08:58:52;;;;;;;4.65;2.03;;;22.00;97.40;;;;;;4973344;28;20097;-80
2021/08/21 09:01:17;;;;;;;6.03;1.90;;;22.00;97.50;;;;;;4973007;28;20030;-80
2021/08/21 09:03:43;;;;;;;4.75;1.85;;;22.00;97.30;;;;;;4973161;28;20049;-78
2021/08/21 09:06:13;;;;;;;6.85;2.20;;;22.00;97.30;;;;;;4973505;28;20037;-79
2021/08/21 09:08:39;;;;;;;4.35;1.48;;;22.00;97.20;;;;;;4973208;28;20042;-79
2021/08/21 09:11:20;;;;;;;4.90;1.75;;;22.00;97.10;;;;;;4973413;28;20023;-79
2021/08/21 09:13:45;;;;;;;5.18;2.00;;;22.10;97.10;;;;;;4973066;28;20019;-79
2021/08/21 09:16:11;;;;;;;3.13;1.75;;;22.10;97.00;;;;;;4972728;28;20502;-80
2021/08/21 09:18:37;;;;;;;4.28;1.73;;;22.10;96.90;;;;;;4973237;28;20018;-78
2021/08/21 09:21:04;;;;;;;3.97;2.00;;;22.20;96.80;;;;;;4972755;28;20035;-78
2021/08/21 09:23:40;;;;;;;2.75;1.80;;;22.10;96.70;;;;;;4972637;28;20509;-79
2021/08/21 09:26:08;;;;;;;5.28;1.40;;;22.20;96.70;;;;;;4973163;28;20030;-78
2021/08/21 09:28:35;;;;;;;3.42;1.65;;;22.20;96.60;;;;;;4972472;28;20034;-78
2021/08/21 09:31:10;;;;;;;5.20;1.50;;;22.20;96.60;;;;;;4972709;28;20030;-78
2021/08/21 09:33:49;;;;;;;3.58;1.80;;;22.20;96.50;;;;;;4973061;28;20027;-80
2021/08/21 09:36:27;;;;;;;4.43;1.60;;;22.20;96.40;;;;;;4955016;28;20483;-79
2021/08/21 09:38:52;;;;;;;4.80;1.42;;;22.20;96.40;;;;;;4972634;28;20077;-78
2021/08/21 09:41:18;;;;;;;3.25;1.70;;;22.20;96.20;;;;;;4972228;28;20031;-77
2021/08/21 09:43:44;;;;;;;3.42;1.45;;;22.20;96.20;;;;;;4972654;28;20502;-78
2021/08/21 09:46:20;;;;;;;3.78;1.60;;;22.20;96.20;;;;;;4972585;28;20550;-78
2021/08/21 09:49:05;;;;;;;2.33;1.25;;;22.30;96.10;;;;;;4954857;28;20035;-79
2021/08/21 09:51:31;;;;;;;2.67;1.35;;;22.30;96.10;;;;;;4954836;28;20066;-78
2021/08/21 09:54:02;;;;;;;2.97;1.65;;;22.30;96.00;;;;;;4955131;28;20058;-78
2021/08/21 09:56:32;;;;;;;3.53;1.48;;;22.30;96.00;;;;;;4972091;28;20432;-78
2021/08/21 09:58:59;;;;;;;2.63;1.45;;;22.30;95.90;;;;;;4972338;28;20035;-78
2021/08/21 10:01:28;;;;;;;2.55;1.52;;;22.40;95.80;;;;;;4972106;28;20073;-78
2021/08/21 10:03:54;;;;;;;3.10;1.63;;;22.40;95.60;;;;;;4972580;28;20051;-78
2021/08/21 10:06:20;;;;;;;3.53;1.67;;;22.40;95.60;;;;;;4972340;28;20420;-78
2021/08/21 10:08:47;;;;;;;5.00;2.00;;;22.50;95.50;;;;;;4972746;28;20035;-78
2021/08/21 10:11:14;;;;;;;2.25;1.50;;;22.50;95.40;;;;;;4976032;28;20541;-79
2021/08/21 10:13:42;;;;;;;2.78;1.63;;;22.50;95.30;;;;;;4976690;28;20027;-78
2021/08/21 10:16:09;;;;;;;2.78;1.50;;;22.50;95.30;;;;;;4976640;28;20026;-78
2021/08/21 10:18:35;;;;;;;1.92;1.33;;;22.50;95.20;;;;;;4976009;28;20027;-77
2021/08/21 10:21:01;;;;;;;2.08;1.27;;;22.50;95.20;;;;;;4975546;28;20066;-77
2021/08/21 10:23:27;;;;;;;2.60;1.50;;;22.50;95.20;;;;;;4973930;28;20084;-78
2021/08/21 10:26:15;;;;;;;4.70;1.60;;;22.60;95.20;;;;;;4976170;28;20517;-76
2021/08/21 10:28:42;;;;;;;3.33;1.80;;;22.60;95.00;;;;;;4966892;28;20047;-78
2021/08/21 10:31:08;;;;;;;2.08;1.35;;;22.60;94.70;;;;;;4976386;28;20538;-77
2021/08/21 10:33:53;;;;;;;3.10;1.38;;;22.70;94.90;;;;;;4977013;28;20105;-78
2021/08/21 10:36:55;;;;;;;6.25;1.35;;;22.70;94.80;;;;;;4975882;28;20014;-77
2021/08/21 10:39:25;;;;;;;3.35;1.60;;;22.70;95.00;;;;;;4911168;29;20144;-77
2021/08/21 10:41:55;;;;;;;5.13;1.58;;;22.80;95.10;;;;;;4955240;28;20078;-77
2021/08/21 10:44:44;;;;;;;4.93;1.88;;;22.80;94.80;;;;;;4962289;28;20023;-78
2021/08/21 10:47:34;;;;;;;6.53;1.67;;;22.80;94.70;;;;;;4973961;28;20073;-76
2021/08/21 10:50:13;;;;;;;2.92;1.35;;;22.80;95.00;;;;;;4975687;28;20031;-77
2021/08/21 10:52:44;;;;;;;3.17;1.85;;;22.90;94.80;;;;;;4975995;28;20027;-77
2021/08/21 10:55:17;;;;;;;6.70;1.55;;;22.90;95.20;;;;;;4975001;28;20114;-77
2021/08/21 10:58:06;;;;;;;3.60;1.67;;;22.90;95.30;;;;;;4953976;29;20106;-81
2021/08/21 11:00:45;;;;;;;3.20;1.45;;;22.90;95.30;;;;;;4938815;29;20023;-81
2021/08/21 11:03:13;;;;;;;3.40;1.35;;;23.00;95.30;;;;;;4955440;28;20094;-81
2021/08/21 11:06:01;;;;;;;6.47;1.83;;;23.00;95.20;;;;;;4949746;28;20421;-78
2021/08/21 11:08:53;;;;;;;6.63;1.67;;;23.10;95.10;;;;;;4962367;28;20028;-78
2021/08/21 11:11:27;;;;;;;3.25;1.45;;;23.10;95.10;;;;;;4959814;28;20027;-78
2021/08/21 11:14:00;;;;;;;3.25;1.50;;;23.10;94.90;;;;;;4964406;28;20097;-78
2021/08/21 11:16:53;;;;;;;5.43;1.73;;;23.10;94.80;;;;;;4965355;28;20031;-81
2021/08/21 11:19:25;;;;;;;8.23;1.88;;;23.20;94.80;;;;;;4964683;28;20051;-80
2021/08/21 11:21:51;;;;;;;3.42;1.40;;;23.20;94.80;;;;;;4962753;28;20078;-77
2021/08/21 11:24:28;;;;;;;4.93;1.90;;;23.20;94.80;;;;;;4965310;28;20026;-79
2021/08/21 11:27:22;;;;;;;7.82;1.55;;;23.20;94.90;;;;;;4951231;28;20030;-78
2021/08/21 11:32:49;;;;;;;6.68;1.63;;;;;;;;;;4975362;28;20026;-78
2021/08/21 11:35:32;;;;;;;95.28;14.95;;;;;;;;;;4973447;28;20069;-83
2021/08/21 11:38:05;;;;;;;59.50;8.13;;;;;;;;;;4974840;28;20032;-82
2021/08/21 11:40:44;;;;;;;18.40;3.38;;;23.20;94.90;;;;;;4957215;28;20035;-81
2021/08/21 11:43:15;;;;;;;25.45;3.55;;;23.60;94.50;;;;;;4961545;28;20035;-81
2021/08/21 11:45:42;;;;;;;17.42;3.30;;;23.60;94.80;;;;;;4974733;28;20497;-80
2021/08/21 11:48:08;;;;;;;25.50;4.35;;;23.60;94.60;;;;;;4965399;28;20026;-84
2021/08/21 11:50:34;;;;;;;23.40;4.55;;;23.60;95.00;;;;;;4971355;28;20027;-78
2021/08/21 11:53:07;;;;;;;18.30;3.55;;;23.70;95.10;;;;;;4974395;28;20051;-82
2021/08/21 11:55:34;;;;;;;19.67;4.13;;;23.70;94.80;;;;;;4970868;28;20030;-82
2021/08/21 11:58:01;;;;;;;15.80;3.63;;;23.80;95.00;;;;;;4955196;29;20507;-78
2021/08/21 12:00:31;;;;;;;25.08;4.13;;;23.80;95.10;;;;;;4957238;28;20029;-85
2021/08/21 12:03:04;;;;;;;16.65;3.88;;;23.80;94.90;;;;;;4957036;28;20035;-80
2021/08/21 12:05:40;;;;;;;17.80;3.63;;;23.90;94.90;;;;;;4961604;28;20027;-79
2021/08/21 12:08:22;;;;;;;15.25;3.10;;;23.90;94.70;;;;;;4967372;28;20043;-80
2021/08/21 12:10:54;;;;;;;11.27;3.67;;;23.90;94.80;;;;;;4965139;28;20059;-78
2021/08/21 12:13:40;;;;;;;9.23;2.75;;;24.00;94.50;;;;;;4964992;28;20071;-81
2021/08/21 12:16:12;;;;;;;12.82;2.80;;;24.00;94.60;;;;;;4964564;28;20080;-80
2021/08/21 12:18:39;;;;;;;11.05;3.10;;;;;;;;;;4962294;28;20027;-79
2021/08/21 12:21:07;;;;;;;10.07;3.03;;;24.00;94.50;;;;;;4962087;28;20095;-80
2021/08/21 12:23:35;;;;;;;13.77;3.47;;;24.00;94.50;;;;;;4964246;28;20023;-79
2021/08/21 12:26:03;;;;;;;9.55;3.00;;;24.00;94.70;;;;;;4962482;28;20031;-81
2021/08/21 12:28:37;;;;;;;14.75;2.42;;;24.10;94.50;;;;;;4961138;28;20082;-80
2021/08/21 12:31:11;;;;;;;11.77;4.32;;;24.10;94.40;;;;;;4963895;28;20485;-80
2021/08/21 12:33:42;;;;;;;10.27;2.70;;;24.10;94.40;;;;;;4962303;28;20514;-81
2021/08/21 12:36:28;;;;;;;11.00;2.90;;;24.10;94.60;;;;;;4961891;28;20023;-79
2021/08/21 12:39:20;;;;;;;;;;;24.10;94.40;;;;;;4964405;28;20058;-79
2021/08/21 12:41:49;;;;;;;8.50;2.40;;;24.10;94.40;;;;;;4957618;28;19923;-80
2021/08/21 12:44:16;;;;;;;7.72;2.00;;;24.10;94.40;;;;;;4962561;28;20101;-81
2021/08/21 12:46:49;;;;;;;8.30;2.28;;;24.10;94.50;;;;;;4945457;28;20127;-80
2021/08/21 12:49:15;;;;;;;7.72;2.08;;;24.10;94.50;;;;;;4962693;28;20049;-80
2021/08/21 12:51:42;;;;;;;11.02;2.35;;;24.10;94.60;;;;;;4961484;28;20023;-79
2021/08/21 12:54:11;;;;;;;9.77;2.63;;;24.10;94.50;;;;;;4961652;28;20023;-78
2021/08/21 12:56:38;;;;;;;6.90;1.95;;;24.10;94.40;;;;;;4963184;28;20031;-80
2021/08/21 12:59:11;;;;;;;10.27;2.80;;;24.20;94.50;;;;;;4968130;28;20383;-79
2021/08/21 13:01:38;;;;;;;10.73;2.38;;;24.10;94.50;;;;;;4979787;28;20058;-80